Time;durP1;ratioP1;P1;durP2;ratioP2;P2;SDS_P1;SDS_P2;PMS_P1;PMS_P2;Temp;Humidity;BMP_temperature;BMP_pressure;BME280_temperature;BME280_humidity;BME280_pressure;Samples;Min_cycle;Max_cycle;Signal;HPM_P1;HPM_P2
2022/01/29 00:00:55;;;;;;;72.40;25.20;;;7.10;99.90;;;;;;5055140;28;20045;-74
2022/01/29 00:03:22;;;;;;;74.47;31.40;;;7.10;99.90;;;;;;5038878;28;20045;-73
2022/01/29 00:05:49;;;;;;;82.00;27.90;;;7.10;99.90;;;;;;5058407;28;20147;-74
2022/01/29 00:08:16;;;;;;;75.80;27.92;;;7.10;99.90;;;;;;5041146;28;20079;-74
2022/01/29 00:10:43;;;;;;;71.13;27.13;;;7.00;99.90;;;;;;5041639;28;20044;-74
2022/01/29 00:13:09;;;;;;;;;;;7.10;99.90;;;;;;5058820;28;20397;-74
2022/01/29 00:15:35;;;;;;;76.88;29.23;;;7.10;99.90;;;;;;5076206;28;19927;-74
2022/01/29 00:18:02;;;;;;;74.13;27.13;;;7.10;99.90;;;;;;5058103;28;20389;-73
2022/01/29 00:20:28;;;;;;;68.40;26.85;;;7.10;99.90;;;;;;5057721;28;20067;-74
2022/01/29 00:22:53;;;;;;;71.88;27.25;;;7.10;99.90;;;;;;5041396;28;20057;-74
2022/01/29 00:25:19;;;;;;;69.10;25.90;;;7.10;99.90;;;;;;5040426;28;20044;-73
2022/01/29 00:27:45;;;;;;;73.60;27.35;;;7.20;99.90;;;;;;5040944;28;20349;-74
2022/01/29 00:30:16;;;;;;;71.22;26.33;;;7.20;99.90;;;;;;5041081;28;20463;-74
2022/01/29 00:32:42;;;;;;;60.47;22.33;;;7.20;99.90;;;;;;5075199;28;20137;-73
2022/01/29 00:35:08;;;;;;;69.53;30.00;;;7.20;99.90;;;;;;5040703;28;20075;-74
2022/01/29 00:37:34;;;;;;;76.90;28.98;;;7.20;99.90;;;;;;5041126;28;20044;-73
2022/01/29 00:40:00;;;;;;;68.28;27.42;;;7.20;99.90;;;;;;5007610;28;20048;-73
2022/01/29 00:42:26;;;;;;;73.95;25.50;;;7.10;99.90;;;;;;5040108;28;20491;-73
2022/01/29 00:44:52;;;;;;;76.35;26.95;;;7.10;99.90;;;;;;5040857;28;20041;-74
2022/01/29 00:47:18;;;;;;;73.20;26.30;;;7.10;99.90;;;;;;5056952;28;20400;-74
2022/01/29 00:49:44;;;;;;;73.90;28.90;;;7.10;99.90;;;;;;5040955;28;20049;-74
2022/01/29 00:52:11;;;;;;;74.93;27.00;;;7.10;99.90;;;;;;5056744;28;20053;-74
2022/01/29 00:54:37;;;;;;;69.13;26.58;;;7.10;99.90;;;;;;5057613;28;20080;-75
2022/01/29 00:57:03;;;;;;;75.97;26.90;;;7.00;99.90;;;;;;5074777;28;20477;-74
2022/01/29 00:59:31;;;;;;;71.75;24.95;;;7.00;99.90;;;;;;5040966;28;20139;-72
2022/01/29 01:01:57;;;;;;;62.90;25.42;;;7.00;99.90;;;;;;5023824;28;20052;-72
2022/01/29 01:04:23;;;;;;;69.45;26.63;;;6.90;99.90;;;;;;5074335;28;20056;-72
2022/01/29 01:06:49;;;;;;;72.55;28.13;;;6.90;99.90;;;;;;5056893;28;20396;-73
2022/01/29 01:09:14;;;;;;;69.13;24.60;;;6.90;99.90;;;;;;5040266;28;20047;-73
2022/01/29 01:11:40;;;;;;;69.07;25.63;;;6.90;99.90;;;;;;5040054;28;20094;-73
2022/01/29 01:14:06;;;;;;;66.78;25.65;;;6.90;99.90;;;;;;5007188;28;20086;-75
2022/01/29 01:16:32;;;;;;;73.10;29.33;;;6.90;99.90;;;;;;5039805;28;20480;-73
2022/01/29 01:18:58;;;;;;;81.35;26.02;;;6.90;99.90;;;;;;5074742;28;20040;-72
2022/01/29 01:21:23;;;;;;;76.82;25.05;;;6.90;99.90;;;;;;5056795;28;20049;-72
2022/01/29 01:23:49;;;;;;;73.15;24.90;;;6.80;99.90;;;;;;5056611;28;20075;-72
2022/01/29 01:26:15;;;;;;;72.13;24.33;;;6.90;99.90;;;;;;5039525;28;20040;-73
2022/01/29 01:28:41;;;;;;;72.75;26.40;;;6.90;99.90;;;;;;5056583;28;20049;-73
2022/01/29 01:31:07;;;;;;;67.80;23.20;;;6.90;99.90;;;;;;5056706;28;20374;-75
2022/01/29 01:33:33;;;;;;;67.35;22.67;;;7.00;99.90;;;;;;5039669;28;20105;-72
2022/01/29 01:36:02;;;;;;;72.38;24.25;;;7.10;99.90;;;;;;5074248;28;20048;-73
2022/01/29 01:38:40;;;;;;;59.17;22.27;;;7.00;99.90;;;;;;5056669;28;20049;-73
2022/01/29 01:41:10;;;;;;;60.88;22.25;;;7.10;99.90;;;;;;5040474;28;20048;-73
2022/01/29 01:43:36;;;;;;;66.53;23.20;;;7.10;99.90;;;;;;5039990;28;20128;-73
2022/01/29 01:46:02;;;;;;;60.58;23.45;;;7.10;99.90;;;;;;5040401;28;20131;-74
2022/01/29 01:48:27;;;;;;;61.17;21.65;;;7.10;99.90;;;;;;5056011;28;20109;-73
2022/01/29 01:50:54;;;;;;;67.05;23.63;;;7.10;99.90;;;;;;5056400;28;20052;-74
2022/01/29 01:53:19;;;;;;;63.88;24.20;;;7.10;99.90;;;;;;5056153;28;20044;-73
2022/01/29 01:55:47;;;;;;;65.38;21.45;;;7.10;99.90;;;;;;5055842;28;20047;-73
2022/01/29 01:58:13;;;;;;;63.47;22.85;;;7.20;99.90;;;;;;5055889;28;20045;-74
2022/01/29 02:00:39;;;;;;;60.10;21.35;;;7.10;99.90;;;;;;5055989;28;20056;-72
2022/01/29 02:03:04;;;;;;;64.50;22.30;;;7.10;99.90;;;;;;5039311;28;20365;-72
2022/01/29 02:05:30;;;;;;;58.83;22.33;;;7.10;99.90;;;;;;5023166;28;20156;-73
2022/01/29 02:07:58;;;;;;;52.50;21.10;;;7.10;99.90;;;;;;5073889;28;20101;-72
2022/01/29 02:10:26;;;;;;;67.90;22.13;;;7.10;99.90;;;;;;5073075;28;20476;-73
2022/01/29 02:12:57;;;;;;;61.75;22.02;;;7.00;99.90;;;;;;5039127;28;20060;-73
2022/01/29 02:15:24;;;;;;;64.03;20.88;;;7.00;99.90;;;;;;5073293;28;20044;-73
2022/01/29 02:17:50;;;;;;;55.50;21.30;;;7.10;99.90;;;;;;5055716;28;20133;-73
2022/01/29 02:20:35;;;;;;;65.00;20.73;;;7.10;99.90;;;;;;5056035;28;20048;-73
2022/01/29 02:23:01;;;;;;;66.80;21.42;;;7.10;99.90;;;;;;5039655;28;20048;-74
2022/01/29 02:25:47;;;;;;;59.80;21.55;;;7.20;99.90;;;;;;5073653;28;20052;-73
2022/01/29 02:28:21;;;;;;;72.53;22.98;;;7.10;99.90;;;;;;5038949;28;20056;-74
2022/01/29 02:31:03;;;;;;;73.15;22.70;;;7.10;99.90;;;;;;5055344;28;20392;-73
2022/01/29 02:33:31;;;;;;;56.70;20.48;;;7.10;99.90;;;;;;5038847;28;20040;-72
2022/01/29 02:35:57;;;;;;;60.30;21.77;;;7.20;99.90;;;;;;5055295;28;20052;-73
2022/01/29 02:38:26;;;;;;;57.78;20.77;;;7.20;99.90;;;;;;5073086;28;20133;-74
2022/01/29 02:40:59;;;;;;;56.35;20.05;;;7.20;99.90;;;;;;5073105;28;20106;-73
2022/01/29 02:43:40;;;;;;;71.93;25.08;;;7.20;99.90;;;;;;5055411;28;20052;-73
2022/01/29 02:46:20;;;;;;;60.38;20.73;;;7.20;99.90;;;;;;5039273;28;20109;-72
2022/01/29 02:48:48;;;;;;;58.75;20.23;;;7.20;99.90;;;;;;5038506;28;20047;-75
2022/01/29 02:51:14;;;;;;;61.13;21.35;;;7.20;99.90;;;;;;5038012;28;20457;-75
2022/01/29 02:53:41;;;;;;;75.07;22.02;;;7.20;99.90;;;;;;5055144;28;20057;-72
2022/01/29 02:56:08;;;;;;;72.22;23.08;;;7.30;99.90;;;;;;5054802;28;20048;-72
2022/01/29 02:58:34;;;;;;;;;;;7.20;99.90;;;;;;5038789;28;20056;-72
2022/01/29 03:01:00;;;;;;;64.95;22.92;;;7.10;99.90;;;;;;5022293;28;19924;-71
2022/01/29 03:03:26;;;;;;;68.32;20.75;;;7.20;99.90;;;;;;5054293;28;20040;-74
2022/01/29 03:05:52;;;;;;;65.40;21.85;;;7.20;99.90;;;;;;5051232;28;20132;-74
2022/01/29 03:08:18;;;;;;;74.60;22.50;;;7.20;99.90;;;;;;5035409;28;20451;-76
2022/01/29 03:10:46;;;;;;;57.42;21.70;;;7.20;99.90;;;;;;5052288;28;20375;-72
2022/01/29 03:13:13;;;;;;;60.33;20.35;;;7.20;99.90;;;;;;5018747;28;20084;-74
2022/01/29 03:15:39;;;;;;;67.85;21.73;;;7.30;99.90;;;;;;5051297;28;20136;-73
2022/01/29 03:18:05;;;;;;;58.88;19.90;;;7.30;99.90;;;;;;5034407;28;20485;-73
2022/01/29 03:20:31;;;;;;;71.00;23.00;;;7.30;99.90;;;;;;5051263;28;20072;-72
2022/01/29 03:22:58;;;;;;;70.82;21.88;;;7.30;99.90;;;;;;5051523;28;20045;-72
2022/01/29 03:25:23;;;;;;;68.10;22.38;;;7.30;99.90;;;;;;5018231;28;20056;-74
2022/01/29 03:27:49;;;;;;;76.22;21.98;;;7.30;99.90;;;;;;5034469;28;20056;-72
2022/01/29 03:30:15;;;;;;;60.97;20.67;;;7.30;99.90;;;;;;5051605;28;20121;-72
2022/01/29 03:32:42;;;;;;;68.93;23.13;;;7.20;99.90;;;;;;5018724;28;20041;-73
2022/01/29 03:35:08;;;;;;;65.57;23.13;;;7.30;99.90;;;;;;5052226;28;20048;-73
2022/01/29 03:37:34;;;;;;;68.03;23.30;;;7.30;99.90;;;;;;5034287;28;20049;-73
2022/01/29 03:40:03;;;;;;;65.18;21.42;;;7.30;99.90;;;;;;5034653;28;20094;-73
2022/01/29 03:42:33;;;;;;;71.28;23.10;;;7.20;99.90;;;;;;5052186;28;20040;-74
2022/01/29 03:44:59;;;;;;;72.20;23.27;;;7.30;99.90;;;;;;5051931;28;20465;-73
2022/01/29 03:47:25;;;;;;;70.55;22.17;;;7.30;99.90;;;;;;5051991;28;20076;-72
2022/01/29 03:49:50;;;;;;;62.28;22.00;;;7.30;99.90;;;;;;5034457;28;20084;-73
2022/01/29 03:52:17;;;;;;;70.13;22.67;;;7.30;99.90;;;;;;5050804;28;20512;-73
2022/01/29 03:54:43;;;;;;;64.72;22.23;;;7.30;99.90;;;;;;5050893;28;20360;-72
2022/01/29 03:57:09;;;;;;;60.28;21.25;;;7.30;99.90;;;;;;5034260;28;20045;-73
2022/01/29 03:59:35;;;;;;;77.45;23.30;;;7.30;99.90;;;;;;5050527;28;20155;-73
2022/01/29 04:02:01;;;;;;;60.92;22.10;;;7.30;99.90;;;;;;5034291;28;20242;-73
2022/01/29 04:04:27;;;;;;;74.13;22.42;;;7.40;99.90;;;;;;5017725;28;20057;-73
2022/01/29 04:06:52;;;;;;;66.30;22.50;;;7.30;99.90;;;;;;5034210;28;20090;-73
2022/01/29 04:09:19;;;;;;;65.35;21.08;;;7.40;99.90;;;;;;5034465;28;20116;-73
2022/01/29 04:11:45;;;;;;;72.70;21.20;;;7.40;99.90;;;;;;5034124;28;20485;-73
2022/01/29 04:14:19;;;;;;;67.32;21.23;;;7.40;99.90;;;;;;5033820;28;20539;-73
2022/01/29 04:16:45;;;;;;;66.07;20.73;;;7.40;99.90;;;;;;5037948;28;20070;-72
2022/01/29 04:19:12;;;;;;;69.25;20.73;;;7.30;99.90;;;;;;5054600;28;20051;-72
2022/01/29 04:21:39;;;;;;;61.22;19.48;;;7.40;99.90;;;;;;5055702;28;20049;-72
2022/01/29 04:24:05;;;;;;;64.75;20.38;;;7.50;99.90;;;;;;5037542;28;20465;-72
2022/01/29 04:26:34;;;;;;;63.50;20.25;;;7.50;99.90;;;;;;5055455;28;20045;-72
2022/01/29 04:29:03;;;;;;;64.85;19.92;;;7.50;99.90;;;;;;5021436;28;20056;-72
2022/01/29 04:31:37;;;;;;;66.45;20.70;;;7.50;99.90;;;;;;5037445;28;20052;-72
2022/01/29 04:34:03;;;;;;;63.78;22.48;;;7.60;99.90;;;;;;5055185;28;20052;-72
2022/01/29 04:36:29;;;;;;;59.80;20.33;;;7.60;99.90;;;;;;5054383;28;20052;-71
2022/01/29 04:38:55;;;;;;;63.45;20.05;;;7.60;99.90;;;;;;5020577;28;20556;-72
2022/01/29 04:41:22;;;;;;;58.53;18.43;;;7.70;99.90;;;;;;5055352;28;20087;-71
2022/01/29 04:43:48;;;;;;;58.13;19.60;;;7.60;99.90;;;;;;5054369;28;20060;-71
2022/01/29 04:46:14;;;;;;;63.25;18.63;;;7.70;99.90;;;;;;5037521;28;20139;-73
2022/01/29 04:48:40;;;;;;;54.65;19.45;;;7.70;99.90;;;;;;5055656;28;20045;-73
2022/01/29 04:51:06;;;;;;;49.83;17.38;;;7.70;99.90;;;;;;5054660;28;20041;-72
2022/01/29 04:53:32;;;;;;;55.88;17.90;;;7.80;99.90;;;;;;5053902;28;20053;-73
2022/01/29 04:55:57;;;;;;;54.30;17.73;;;7.80;99.90;;;;;;5053890;28;20076;-74
2022/01/29 04:58:23;;;;;;;48.28;17.17;;;7.80;99.90;;;;;;5037145;28;20045;-73
2022/01/29 05:00:49;;;;;;;47.70;16.70;;;7.90;99.90;;;;;;5037695;28;20108;-72
2022/01/29 05:03:15;;;;;;;47.10;18.10;;;7.90;99.90;;;;;;5037207;28;20048;-73
2022/01/29 05:05:43;;;;;;;51.97;15.38;;;8.00;99.90;;;;;;5021397;28;20057;-73
2022/01/29 05:08:11;;;;;;;46.88;15.88;;;8.00;99.90;;;;;;5037553;28;20401;-74
2022/01/29 05:10:37;;;;;;;45.72;16.05;;;8.00;99.90;;;;;;5055512;28;20049;-72
2022/01/29 05:15:44;;;;;;;49.83;15.25;;;8.10;99.90;;;;;;5053592;28;20049;-74
2022/01/29 05:29:09;;;;;;;46.80;14.75;;;8.10;99.90;;;;;;5054247;28;20424;-73
2022/01/29 05:31:35;;;;;;;41.50;15.15;;;8.20;99.90;;;;;;5053256;28;20190;-74
2022/01/29 05:34:01;;;;;;;42.88;14.75;;;8.20;99.90;;;;;;5053226;28;20041;-73
2022/01/29 05:36:27;;;;;;;47.13;15.65;;;8.30;99.90;;;;;;5054575;28;20049;-75
2022/01/29 05:38:53;;;;;;;39.97;13.23;;;8.30;99.90;;;;;;5036690;28;20121;-73
2022/01/29 05:41:19;;;;;;;38.65;14.55;;;8.20;99.90;;;;;;5054137;28;20060;-74
2022/01/29 05:43:46;;;;;;;41.30;14.45;;;8.30;99.90;;;;;;5052650;28;20103;-73
2022/01/29 05:46:14;;;;;;;59.85;16.55;;;8.30;99.90;;;;;;5037066;28;20049;-72
2022/01/29 05:48:41;;;;;;;40.30;13.90;;;8.30;99.90;;;;;;5036530;28;20049;-73
2022/01/29 05:51:08;;;;;;;35.80;14.15;;;8.30;99.90;;;;;;5036594;28;20084;-73
2022/01/29 05:53:34;;;;;;;39.47;14.48;;;8.30;99.90;;;;;;5053965;28;20457;-74
2022/01/29 05:56:00;;;;;;;49.05;15.88;;;8.30;99.90;;;;;;5052711;28;20132;-74
2022/01/29 05:58:26;;;;;;;42.42;15.38;;;8.30;99.90;;;;;;5052849;28;20135;-73
2022/01/29 06:00:52;;;;;;;43.33;15.00;;;8.30;99.90;;;;;;5052573;28;20072;-73
2022/01/29 06:03:18;;;;;;;41.05;15.55;;;8.30;99.90;;;;;;5053753;28;20052;-73
2022/01/29 06:05:44;;;;;;;39.83;15.40;;;8.40;99.90;;;;;;5035658;28;20056;-73
2022/01/29 06:08:10;;;;;;;39.47;14.07;;;8.40;99.90;;;;;;5052425;28;20048;-74
2022/01/29 06:10:36;;;;;;;43.83;14.00;;;8.40;99.90;;;;;;5052494;28;20103;-73
2022/01/29 06:13:12;;;;;;;36.80;14.55;;;8.40;99.90;;;;;;5036248;28;20493;-73
2022/01/29 06:15:42;;;;;;;38.72;15.40;;;8.40;99.90;;;;;;5054139;28;20088;-75
2022/01/29 06:18:16;;;;;;;36.00;14.13;;;8.40;99.90;;;;;;5036189;28;20052;-72
2022/01/29 06:20:44;;;;;;;36.25;13.82;;;8.40;99.90;;;;;;5054005;28;20120;-73
2022/01/29 06:23:11;;;;;;;41.85;14.85;;;8.40;99.90;;;;;;5035908;28;20056;-72
2022/01/29 06:25:37;;;;;;;;;;;8.40;99.90;;;;;;5053900;28;20045;-73
2022/01/29 06:28:03;;;;;;;37.85;12.77;;;8.40;99.90;;;;;;5053938;28;20027;-73
2022/01/29 06:30:30;;;;;;;32.20;12.80;;;8.40;99.90;;;;;;5052321;28;20067;-72
2022/01/29 06:32:55;;;;;;;36.70;14.98;;;8.40;99.90;;;;;;5053281;28;20051;-72
2022/01/29 06:35:21;;;;;;;32.00;13.35;;;8.40;99.90;;;;;;5053103;28;20388;-71
2022/01/29 06:37:47;;;;;;;33.60;14.55;;;8.50;99.90;;;;;;5035259;28;20059;-72
2022/01/29 06:40:14;;;;;;;42.78;15.02;;;8.50;99.90;;;;;;5051030;28;20064;-72
2022/01/29 06:42:40;;;;;;;37.60;13.73;;;8.50;99.90;;;;;;5035123;28;20053;-74
2022/01/29 06:45:06;;;;;;;36.53;13.13;;;8.50;99.90;;;;;;5052862;28;20091;-72
2022/01/29 06:47:32;;;;;;;32.85;12.90;;;8.50;99.90;;;;;;5052297;28;20056;-72
2022/01/29 06:49:57;;;;;;;36.17;13.38;;;8.50;99.90;;;;;;5053105;28;20048;-72
2022/01/29 06:52:24;;;;;;;34.83;12.68;;;8.50;99.90;;;;;;5052947;28;20179;-75
2022/01/29 06:54:50;;;;;;;33.55;12.30;;;8.50;99.90;;;;;;5051136;28;20055;-72
2022/01/29 06:57:15;;;;;;;31.70;12.25;;;8.50;99.90;;;;;;5051232;28;20049;-72
2022/01/29 06:59:41;;;;;;;30.27;11.90;;;8.50;99.90;;;;;;5052612;28;20041;-73
2022/01/29 07:02:07;;;;;;;33.10;11.23;;;8.50;99.90;;;;;;5052423;28;20381;-73
2022/01/29 07:04:33;;;;;;;33.17;12.30;;;8.50;99.90;;;;;;5018260;28;20045;-72
2022/01/29 07:06:59;;;;;;;34.67;12.45;;;8.50;99.90;;;;;;5051505;28;20455;-73
2022/01/29 07:09:25;;;;;;;30.40;11.40;;;8.60;99.90;;;;;;5018256;28;20052;-73
2022/01/29 07:11:58;;;;;;;35.40;11.35;;;8.60;99.90;;;;;;5018451;28;20094;-72
2022/01/29 07:14:24;;;;;;;27.42;10.95;;;8.60;99.90;;;;;;5051432;28;20045;-73
2022/01/29 07:16:50;;;;;;;31.42;11.18;;;8.60;99.90;;;;;;5052271;28;20061;-72
2022/01/29 07:19:16;;;;;;;37.50;12.18;;;8.60;99.90;;;;;;5001646;28;20053;-72
2022/01/29 07:21:42;;;;;;;31.85;12.13;;;8.60;99.90;;;;;;5051631;28;20063;-73
2022/01/29 07:24:08;;;;;;;26.77;10.23;;;8.60;99.90;;;;;;5017826;28;20044;-73
2022/01/29 07:26:34;;;;;;;33.22;11.15;;;8.60;99.90;;;;;;5051523;28;20091;-72
2022/01/29 07:28:59;;;;;;;29.50;10.88;;;8.60;99.90;;;;;;5034784;28;20052;-72
2022/01/29 07:31:25;;;;;;;31.48;11.30;;;8.60;99.90;;;;;;5018370;28;20191;-75
2022/01/29 07:33:51;;;;;;;28.80;11.20;;;8.60;99.90;;;;;;5034560;28;20132;-73
2022/01/29 07:36:17;;;;;;;33.05;12.25;;;8.60;99.90;;;;;;5051206;28;20045;-73
2022/01/29 07:38:43;;;;;;;33.63;11.15;;;8.60;99.90;;;;;;5034508;28;20539;-74
2022/01/29 07:41:08;;;;;;;33.30;11.10;;;8.60;99.90;;;;;;5018040;28;20183;-72
2022/01/29 07:43:34;;;;;;;33.15;12.13;;;8.60;99.90;;;;;;5052027;28;20203;-72
2022/01/29 07:46:00;;;;;;;33.35;10.93;;;8.60;99.90;;;;;;5050934;28;20084;-73
2022/01/29 07:48:26;;;;;;;30.98;11.25;;;8.60;99.90;;;;;;5050868;28;20071;-72
2022/01/29 07:50:52;;;;;;;31.33;12.48;;;8.60;99.90;;;;;;5037550;28;20140;-75
2022/01/29 07:53:17;;;;;;;33.00;12.35;;;8.60;99.90;;;;;;5038532;28;20508;-72
2022/01/29 07:55:43;;;;;;;32.83;11.52;;;8.60;99.90;;;;;;5055125;28;20049;-72
2022/01/29 07:58:10;;;;;;;33.20;11.15;;;8.60;99.90;;;;;;5056246;28;20421;-73
2022/01/29 08:00:36;;;;;;;34.40;10.10;;;8.60;99.90;;;;;;5054962;28;20072;-73
2022/01/29 08:03:03;;;;;;;32.33;11.07;;;8.60;99.90;;;;;;5054506;28;20334;-73
2022/01/29 08:05:29;;;;;;;38.05;11.75;;;8.60;99.90;;;;;;5054378;28;20140;-73
2022/01/29 08:07:55;;;;;;;30.27;10.50;;;8.60;99.90;;;;;;5054723;28;20127;-72
2022/01/29 08:10:21;;;;;;;26.38;8.77;;;8.70;99.90;;;;;;5054310;28;20045;-73
2022/01/29 08:12:47;;;;;;;31.60;13.48;;;8.70;99.90;;;;;;5055168;28;20041;-73
2022/01/29 08:15:12;;;;;;;28.88;10.75;;;8.80;99.90;;;;;;5055454;28;20037;-73
2022/01/29 08:17:38;;;;;;;31.98;11.60;;;8.70;99.90;;;;;;5038116;28;20142;-73
2022/01/29 08:20:05;;;;;;;29.88;9.32;;;8.80;99.90;;;;;;5055458;28;20080;-73
2022/01/29 08:22:30;;;;;;;30.10;10.37;;;8.80;99.90;;;;;;5037988;28;20135;-73
2022/01/29 08:24:57;;;;;;;28.90;10.35;;;8.90;99.90;;;;;;5037721;28;20152;-73
2022/01/29 08:27:23;;;;;;;23.50;8.32;;;8.80;99.90;;;;;;5038929;28;20045;-73
2022/01/29 08:29:49;;;;;;;27.60;9.80;;;8.90;99.90;;;;;;5037994;28;20071;-73
2022/01/29 08:32:14;;;;;;;25.90;9.55;;;8.90;99.90;;;;;;5054612;28;20052;-73
2022/01/29 08:34:42;;;;;;;25.10;9.75;;;8.90;99.90;;;;;;5037827;28;20055;-72
2022/01/29 08:37:10;;;;;;;28.42;10.32;;;8.90;99.90;;;;;;5038803;28;20048;-73
2022/01/29 08:39:35;;;;;;;;;;;9.00;99.90;;;;;;5054330;28;20045;-72
2022/01/29 08:42:02;;;;;;;26.30;8.52;;;9.00;99.90;;;;;;5055317;28;19997;-73
2022/01/29 08:44:28;;;;;;;21.83;7.87;;;9.00;99.90;;;;;;5053799;28;20489;-73
2022/01/29 08:46:55;;;;;;;30.77;9.50;;;9.00;99.90;;;;;;5053937;28;20306;-74
2022/01/29 08:49:21;;;;;;;24.45;8.32;;;9.00;99.90;;;;;;5037409;28;20444;-71
2022/01/29 08:51:47;;;;;;;23.88;8.23;;;9.10;99.90;;;;;;5055174;28;20099;-73
2022/01/29 08:54:13;;;;;;;17.85;6.78;;;9.10;99.90;;;;;;5053688;28;20045;-72
2022/01/29 08:56:39;;;;;;;23.58;8.57;;;9.10;99.90;;;;;;5054619;28;20045;-72
2022/01/29 08:59:05;;;;;;;19.10;8.07;;;9.20;99.90;;;;;;5054952;28;20080;-72
2022/01/29 09:01:31;;;;;;;21.30;7.93;;;9.20;99.90;;;;;;5052640;28;20040;-72
2022/01/29 09:03:58;;;;;;;22.48;7.95;;;9.20;99.90;;;;;;5056236;28;20047;-74
2022/01/29 09:06:23;;;;;;;23.05;6.95;;;9.20;99.90;;;;;;5056752;28;20052;-72
2022/01/29 09:08:51;;;;;;;26.67;8.95;;;9.20;99.90;;;;;;5040127;28;20052;-72
2022/01/29 09:11:18;;;;;;;22.20;7.63;;;9.20;99.90;;;;;;5056565;28;20056;-73
2022/01/29 09:13:44;;;;;;;23.05;6.80;;;9.30;99.90;;;;;;5074329;28;20044;-72
2022/01/29 09:16:10;;;;;;;22.23;7.75;;;9.20;99.90;;;;;;5074693;28;20052;-72
2022/01/29 09:18:37;;;;;;;20.53;7.83;;;9.20;99.90;;;;;;5040269;28;20088;-74
2022/01/29 09:21:03;;;;;;;22.45;8.02;;;9.30;99.90;;;;;;5040549;28;20135;-72
2022/01/29 09:23:29;;;;;;;20.90;8.23;;;9.30;99.90;;;;;;5056702;28;20050;-73
2022/01/29 09:25:55;;;;;;;22.27;8.45;;;9.30;99.90;;;;;;5056504;28;20355;-73
2022/01/29 09:28:22;;;;;;;28.05;10.32;;;9.30;99.90;;;;;;5056997;28;20048;-72
2022/01/29 09:30:49;;;;;;;20.30;7.60;;;9.40;99.90;;;;;;5056502;28;20057;-73
2022/01/29 09:33:16;;;;;;;23.80;8.27;;;9.40;99.90;;;;;;5055963;28;20040;-72
2022/01/29 09:35:43;;;;;;;19.08;7.53;;;9.40;99.90;;;;;;5055946;28;20045;-73
2022/01/29 09:38:11;;;;;;;20.40;9.48;;;9.40;99.90;;;;;;5056244;28;20108;-73
2022/01/29 09:40:37;;;;;;;21.35;8.57;;;9.50;99.90;;;;;;5056357;28;20073;-75
2022/01/29 09:43:07;;;;;;;22.27;8.20;;;9.50;99.90;;;;;;5074006;28;20052;-73
2022/01/29 09:45:33;;;;;;;22.77;9.32;;;9.50;99.90;;;;;;5057073;28;20056;-72
2022/01/29 09:48:02;;;;;;;21.20;7.43;;;9.50;99.90;;;;;;5056218;28;20370;-73
2022/01/29 09:50:36;;;;;;;21.58;7.82;;;9.50;99.90;;;;;;5056255;28;20044;-73
2022/01/29 09:53:03;;;;;;;19.23;7.40;;;9.60;99.90;;;;;;5073768;28;20106;-74
2022/01/29 09:55:29;;;;;;;;;;;9.60;99.90;;;;;;5040017;28;20040;-73
2022/01/29 09:57:56;;;;;;;20.37;6.90;;;9.60;99.90;;;;;;5056348;28;20011;-73
2022/01/29 10:00:22;;;;;;;;;;;9.70;99.90;;;;;;5074067;28;20508;-73
2022/01/29 10:03:10;;;;;;;21.73;6.90;;;9.60;99.90;;;;;;5073853;28;19924;-72
2022/01/29 10:05:47;;;;;;;14.05;6.57;;;9.70;99.90;;;;;;5055676;28;20056;-73
2022/01/29 10:08:14;;;;;;;21.00;6.43;;;9.70;99.90;;;;;;5056190;28;20057;-74
2022/01/29 10:10:46;;;;;;;16.42;6.35;;;9.80;99.90;;;;;;5056365;28;20057;-72
2022/01/29 10:13:41;;;;;;;15.57;6.00;;;9.80;99.90;;;;;;5054897;28;20071;-74
2022/01/29 10:16:08;;;;;;;19.90;5.78;;;9.80;99.90;;;;;;5026277;28;20059;-75
2022/01/29 10:18:35;;;;;;;19.70;6.18;;;9.80;99.90;;;;;;5055611;28;20044;-73
2022/01/29 10:21:37;;;;;;;19.17;6.10;;;9.90;99.90;;;;;;5039018;28;20082;-73
2022/01/29 10:24:05;;;;;;;21.15;6.53;;;9.90;99.90;;;;;;5038909;28;20037;-74
2022/01/29 10:26:37;;;;;;;16.73;6.35;;;9.80;99.90;;;;;;5073368;28;20248;-73
2022/01/29 10:29:08;;;;;;;19.58;7.07;;;9.90;99.90;;;;;;5056073;28;20053;-71
2022/01/29 10:31:44;;;;;;;15.27;6.93;;;9.90;99.90;;;;;;5073561;28;20439;-72
2022/01/29 10:34:19;;;;;;;17.77;6.15;;;9.90;99.90;;;;;;5073062;28;20398;-69
2022/01/29 10:36:46;;;;;;;15.15;5.95;;;9.80;99.90;;;;;;5073376;28;20388;-73
2022/01/29 10:39:12;;;;;;;;;;;9.80;99.90;;;;;;5055723;28;20128;-73
2022/01/29 10:41:38;;;;;;;16.30;6.27;;;9.80;99.90;;;;;;5056063;28;19971;-72
2022/01/29 10:44:14;;;;;;;16.50;5.70;;;9.90;99.90;;;;;;5055133;28;20048;-73
2022/01/29 10:46:51;;;;;;;18.05;4.95;;;9.90;99.90;;;;;;5055102;28;20083;-73
2022/01/29 10:49:22;;;;;;;12.15;5.60;;;9.90;99.90;;;;;;5055666;28;20052;-72
2022/01/29 10:51:57;;;;;;;15.20;5.35;;;10.00;99.90;;;;;;5055818;28;20056;-74
2022/01/29 10:54:23;;;;;;;16.98;5.72;;;10.00;99.90;;;;;;5072404;28;20127;-72
2022/01/29 10:56:55;;;;;;;11.73;4.95;;;10.10;99.90;;;;;;5039082;28;20110;-72
2022/01/29 10:59:21;;;;;;;16.73;5.72;;;10.10;99.90;;;;;;5054668;28;20055;-72
2022/01/29 11:01:52;;;;;;;18.42;4.93;;;10.10;99.90;;;;;;5054761;28;20059;-73
2022/01/29 11:04:17;;;;;;;17.60;4.97;;;10.20;99.90;;;;;;5054415;28;20040;-74
2022/01/29 11:06:46;;;;;;;13.20;3.40;;;10.20;99.90;;;;;;5055037;28;20097;-73
2022/01/29 11:09:13;;;;;;;13.10;4.30;;;10.20;99.90;;;;;;5054263;28;20052;-75
2022/01/29 11:11:45;;;;;;;10.48;2.92;;;10.30;99.90;;;;;;5054983;28;20091;-74
2022/01/29 11:14:16;;;;;;;16.50;3.42;;;;;;;;;;5072566;28;20045;-76
2022/01/29 11:16:44;;;;;;;15.65;3.33;;;10.40;99.90;;;;;;5038038;28;20049;-74
2022/01/29 11:19:11;;;;;;;12.27;3.33;;;10.50;99.90;;;;;;5054529;28;20143;-74
2022/01/29 11:21:38;;;;;;;8.68;2.40;;;10.60;99.90;;;;;;5055184;28;20140;-73
2022/01/29 11:24:06;;;;;;;7.88;2.15;;;10.70;99.90;;;;;;5071889;28;20048;-73
2022/01/29 11:26:33;;;;;;;11.43;2.10;;;10.80;99.90;;;;;;5053878;28;20045;-75
2022/01/29 11:29:28;;;;;;;7.30;1.85;;;10.80;99.90;;;;;;5055635;28;20060;-74
2022/01/29 11:32:22;;;;;;;9.93;2.22;;;10.80;99.90;;;;;;5054723;28;20048;-74
2022/01/29 11:35:17;;;;;;;9.65;2.50;;;10.80;99.90;;;;;;5054024;28;20041;-73
2022/01/29 11:38:02;;;;;;;8.02;2.40;;;10.70;99.90;;;;;;5054562;28;20052;-75
2022/01/29 11:40:44;;;;;;;9.27;1.80;;;10.90;99.90;;;;;;5054477;28;20062;-74
2022/01/29 11:43:24;;;;;;;10.27;2.10;;;10.80;99.90;;;;;;5055196;28;20136;-73
2022/01/29 11:45:53;;;;;;;7.63;1.90;;;10.80;99.90;;;;;;5054718;28;20052;-74
2022/01/29 11:48:26;;;;;;;8.88;1.67;;;10.90;99.90;;;;;;5037538;28;20040;-74
2022/01/29 11:51:01;;;;;;;7.35;1.35;;;10.80;99.90;;;;;;5038623;28;20117;-73
2022/01/29 11:53:50;;;;;;;8.88;1.40;;;10.80;99.90;;;;;;5054220;28;20476;-73
2022/01/29 11:56:35;;;;;;;9.25;1.73;;;10.90;99.90;;;;;;5037323;28;20050;-74
2022/01/29 11:59:26;;;;;;;6.45;1.75;;;10.90;99.90;;;;;;5054111;28;20131;-73
2022/01/29 12:01:58;;;;;;;10.68;2.22;;;11.20;99.90;;;;;;5054754;28;20056;-73
2022/01/29 12:04:45;;;;;;;10.02;1.40;;;11.00;99.90;;;;;;5054037;28;20060;-74
2022/01/29 12:07:13;;;;;;;;;;;11.10;99.90;;;;;;5029918;28;20106;-73
2022/01/29 12:09:47;;;;;;;6.65;1.45;;;11.20;99.90;;;;;;5053841;28;19920;-73
2022/01/29 12:12:27;;;;;;;8.48;2.10;;;11.20;99.90;;;;;;5072107;28;20494;-73
2022/01/29 12:15:11;;;;;;;8.77;1.35;;;11.30;99.90;;;;;;5022383;28;20043;-74
2022/01/29 12:17:49;;;;;;;8.05;1.60;;;11.30;99.90;;;;;;5038236;28;20047;-73
2022/01/29 12:20:21;;;;;;;8.63;1.40;;;11.20;99.90;;;;;;5037591;28;20098;-72
2022/01/29 12:22:48;;;;;;;11.52;1.85;;;11.10;99.90;;;;;;5054216;28;20404;-73
2022/01/29 12:25:16;;;;;;;5.70;1.23;;;11.20;99.90;;;;;;5071742;28;20055;-72
2022/01/29 12:27:51;;;;;;;7.38;1.27;;;11.10;99.90;;;;;;5054563;28;20049;-72
2022/01/29 12:30:21;;;;;;;9.07;1.88;;;11.20;99.90;;;;;;5053955;28;20106;-72
2022/01/29 12:33:05;;;;;;;8.38;1.52;;;11.10;99.90;;;;;;5071904;28;20044;-72
2022/01/29 12:35:38;;;;;;;9.90;1.30;;;11.10;99.90;;;;;;5053669;28;20048;-72
2022/01/29 12:38:06;;;;;;;10.90;1.88;;;11.10;99.90;;;;;;5056499;28;20496;-74
2022/01/29 12:40:38;;;;;;;12.38;1.98;;;11.10;99.90;;;;;;5057785;28;20044;-72
2022/01/29 12:43:19;;;;;;;11.13;1.58;;;11.10;99.90;;;;;;5025518;28;20044;-73
2022/01/29 12:45:44;;;;;;;12.95;1.35;;;11.10;99.90;;;;;;5057969;28;20063;-72
2022/01/29 12:48:11;;;;;;;10.57;2.17;;;11.20;99.90;;;;;;5057748;28;20048;-72
2022/01/29 12:50:39;;;;;;;8.55;1.35;;;11.10;99.90;;;;;;5040273;28;20037;-72
2022/01/29 12:53:17;;;;;;;8.43;1.33;;;11.10;99.90;;;;;;5057048;28;20048;-75
2022/01/29 12:55:44;;;;;;;14.90;1.83;;;11.00;99.90;;;;;;5040597;28;20380;-72
2022/01/29 12:58:09;;;;;;;9.07;1.65;;;11.10;99.90;;;;;;5024114;28;20411;-72
2022/01/29 13:00:36;;;;;;;10.00;1.48;;;11.10;99.90;;;;;;5041067;28;20056;-72
2022/01/29 13:03:09;;;;;;;12.68;2.00;;;11.10;99.90;;;;;;5040377;28;20088;-73